BCDF · Horizon Kinetics Blockchain Development ETF ETF
$34.01
0.00 (0.00%)
At close · Sep 4
Daily short-sale volume published by FINRA from its trade-reporting facilities. It measures how many shares were sold short each day as a share of total volume — a daily flow, not the total outstanding short position.
Short Volume
| Date | Short Volume | Short Exempt | Total Volume | Short % |
|---|---|---|---|---|
| 2026-09-04 | 3 | 0 | 206 | 1.4% |
| 2026-09-03 | 16 | 0 | 19 | 82.2% |
| 2026-09-02 | 1,659 | 0 | 1,900 | 87.3% |
| 2026-09-01 | 606 | 0 | 616 | 98.4% |
| 2026-08-31 | 757 | 0 | 1,674 | 45.2% |
| 2026-08-28 | 3 | 0 | 6 | 50.0% |
| 2026-08-27 | 3 | 0 | 6 | 50.0% |
| 2026-08-26 | 15 | 0 | 408 | 3.7% |
| 2026-08-25 | 81 | 0 | 232 | 34.8% |
| 2026-08-24 | 408 | 0 | 539 | 75.7% |
| 2026-08-21 | 622 | 0 | 1,259 | 49.4% |
| 2026-08-20 | 508 | 0 | 1,053 | 48.2% |
| 2026-08-19 | 53 | 0 | 495 | 10.7% |
| 2026-08-18 | 3 | 0 | 46 | 6.5% |
| 2026-08-17 | 3,015 | 0 | 3,869 | 77.9% |
| 2026-08-14 | 406 | 0 | 1,393 | 29.1% |
| 2026-08-13 | 3 | 0 | 6 | 50.0% |
| 2026-08-12 | 337 | 0 | 493 | 68.3% |
| 2026-08-11 | 3 | 0 | 1,282 | 0.2% |
| 2026-08-10 | 524 | 0 | 653 | 80.3% |
| 2026-08-07 | 3 | 0 | 7 | 42.9% |
| 2026-08-06 | 3 | 0 | 3 | 100.0% |
| 2026-08-05 | 328 | 0 | 358 | 91.7% |
| 2026-08-04 | 30 | 0 | 93 | 32.1% |
| 2026-08-03 | 22 | 0 | 27 | 83.0% |
| 2026-07-31 | 3 | 0 | 6 | 50.0% |
| 2026-07-30 | 3 | 0 | 6 | 50.0% |
| 2026-07-29 | 624 | 0 | 627 | 99.5% |
| 2026-07-28 | 405 | 0 | 598 | 67.7% |
| 2026-07-27 | 256 | 0 | 332 | 77.0% |
| 2026-07-24 | 231 | 0 | 316 | 73.0% |
| 2026-07-23 | 105 | 0 | 159 | 65.9% |
| 2026-07-22 | 203 | 0 | 407 | 49.8% |
| 2026-07-21 | 353 | 0 | 510 | 69.2% |
| 2026-07-20 | 21 | 0 | 36 | 57.9% |
| 2026-07-17 | 318 | 0 | 419 | 75.8% |
| 2026-07-16 | 3 | 0 | 6 | 50.0% |
| 2026-07-15 | 333 | 0 | 2,191 | 15.2% |
| 2026-07-14 | 3 | 0 | 6 | 50.0% |
| 2026-07-13 | 392 | 0 | 404 | 97.0% |
| 2026-07-10 | 40 | 0 | 143 | 27.9% |
| 2026-07-09 | 73 | 0 | 76 | 96.1% |
| 2026-07-08 | 99 | 0 | 256 | 38.7% |
| 2026-07-07 | 295 | 0 | 476 | 61.9% |
| 2026-07-06 | 3 | 0 | 6 | 50.0% |
| 2026-07-02 | 73 | 0 | 180 | 40.5% |
| 2026-07-01 | 101 | 0 | 375 | 26.9% |
| 2026-06-30 | 111 | 0 | 656 | 16.9% |
| 2026-06-29 | 5 | 0 | 197 | 2.5% |
| 2026-06-26 | 106 | 0 | 534 | 19.9% |
Showing 1–50 of 64 days